South Paterson, New Jersey
Current Conditions -  °F | °C
As of 6:51 PM on Sunday 21 Dec 2014 (Local Time) from KTEB Reporting Station
Overcast Overcast  
Wind Chill: -1°   Ceiling: 2000
Heat Index:   Visibility: 10mi
Dew Point: -3°   Wind: 6mph
Humidity: 72%   Direction: 350°N
Pressure: 30.34"   Gusts: NA
Location:  40.8979°N, 74.1545°W
Report Text: KTEB 212351Z 35005KT 10SM OVC020 02/M03 A3034 RMK AO2 SNE30 SLP272 P0000 60000 T00171028 10022 20011 53015
Loading
Personal Weather Stations






























Interactive Weather Map New forecast layout! Learn more

10-Day Weather Forecast

Advertisements
Track Severe Weather on mobile